This is the latest recevied weather packets stored in our database for station/object KB0BDN-13. If no packets are shown the sender has not sent any weather packets the latest 10 day(s).
| Time | Temp. | Humidity | Pressure | Rain* | Wind** | Luminosity | Snow |
|---|---|---|---|---|---|---|---|
| 1777569427 | 0.56° C | 67% | 1012 hPa | 0 mm | - | - | - |
| 1777568527 | 0.56° C | 69% | 1012.2 hPa | 0 mm | - | - | - |
| 1777567627 | 0.56° C | 66% | 1012.1 hPa | 0 mm | - | - | - |
| 1777566727 | 0.56° C | 67% | 1012 hPa | 0 mm | - | - | - |
| 1777565827 | 0° C | 70% | 1012.1 hPa | 0 mm | - | - | - |
| 1777564927 | 0.56° C | 66% | 1012 hPa | 0 mm | - | - | - |
| 1777564027 | 0.56° C | 64% | 1012 hPa | 0 mm | - | - | - |
| 1777563127 | 1.11° C | 63% | 1012 hPa | 0 mm | - | - | - |
| 1777562227 | 1.11° C | 65% | 1012 hPa | 0.25 mm | - | - | - |
| 1777561327 | 0.56° C | 68% | 1012.2 hPa | 0.25 mm | - | - | - |
| 1777560427 | 0° C | 71% | 1012.2 hPa | 0.25 mm | - | - | - |
| 1777559527 | 0° C | 73% | 1012.4 hPa | 0.25 mm | - | - | - |
| 1777558626 | 0° C | 76% | 1012.4 hPa | 0 mm | - | - | - |
| 1777557726 | -0.56° C | 81% | 1012.4 hPa | 0 mm | - | - | - |
| 1777556826 | -1.11° C | 82% | 1012.4 hPa | 0 mm | - | - | - |
| 1777555926 | -1.67° C | 85% | 1012.2 hPa | 0 mm | - | - | - |
| 1777555026 | -1.67° C | 88% | 1012.4 hPa | 0 mm | - | - | - |
| 1777554126 | -1.67° C | 90% | 1012.4 hPa | 0 mm | - | - | - |
| 1777553226 | -1.67° C | 92% | 1012.4 hPa | 0 mm | - | - | - |
| 1777552326 | -1.67° C | 93% | 1012.2 hPa | 0 mm | - | - | - |
| 1777551426 | -2.22° C | 93% | 1012.1 hPa | 0 mm | - | - | - |
| 1777550526 | -2.22° C | 93% | 1011.9 hPa | 0 mm | - | - | - |
| 1777549626 | -2.22° C | 93% | 1011.9 hPa | 0 mm | - | - | - |
| 1777548726 | -2.22° C | 93% | 1011.8 hPa | 0 mm | - | - | - |
| 1777547826 | -2.22° C | 93% | 1011.9 hPa | 0 mm | - | - | - |
* Rain latest hour (hover to see other rain measurements)
** Current wind speed in m/s (hover to see current wind gust speed)